首页
METAR-TAF:

METAR-TAF

机场 :

圣莫里茨, 瑞士

纬度: 46-32-03N, 经度: 9-53-03E, 海拔: 1707米

当前天气观测

该预报发布于11分钟前的18:50 UTC
风速12节,风向东北
温度 -2°C
湿度 74%
气压 1014 hPa
能见度10公里或以上
阴天层高于5500英尺

METAR: LSZS 301850Z AUTO 04012KT 9999 OVC055 M02/M06 Q1014 RESN

时间: 21:01 (19:01 UTC)

预报

该预报发布于4小时和36分钟前的14:25 UTC
预报有效从30日的 15点(UTC)到 30日的 24点(UTC)
风速8节,风向北转东北
能见度10公里或以上
多云层高于3000英尺
短暂存在
从 30日的 15点(UTC)到 30日的 24点(UTC)
能見度: 2500
小雪

TAF: LSZS 301425Z 3015/3024 03008KT 9999 BKN030 TX00/3015Z TEMPO 3015/3024 2500 -SN

超过4000个机场的气象观测和天气预报(METAR&TAF报告)。

可查询的气象台以黄色和红色小点在地图上表示。

将鼠标移到小点上方,可查看气象台名称。

然后点击查看天气观测和预报。

如需切换地图:点击带黑十字的绿色按钮放大地图;点击带横线的绿色按钮缩小地图;或者点击绿色箭头查看邻近地区的地图。


METAR-TAF: